createdAt,value
2019-06-26T00:00:03.444Z,100443.06
2019-06-26T00:00:40.533Z,100446.38
2019-06-26T00:01:17.486Z,100451.00
2019-06-26T00:01:53.633Z,100448.15
2019-06-26T00:02:30.619Z,100452.11
2019-06-26T00:03:07.582Z,100452.11
2019-06-26T00:03:43.607Z,100452.89
2019-06-26T00:04:20.699Z,100451.72
2019-06-26T00:04:57.688Z,100456.36
2019-06-26T00:05:34.291Z,100452.48
2019-06-26T00:06:10.943Z,100455.94
2019-06-26T00:06:48.000Z,100449.38
2019-06-26T00:07:24.455Z,100450.23
2019-06-26T00:08:01.686Z,100454.76
2019-06-26T00:08:38.494Z,100453.53
2019-06-26T00:09:14.525Z,100457.98
2019-06-26T00:09:52.208Z,100461.41
2019-06-26T00:10:29.319Z,100459.49
2019-06-26T00:11:05.640Z,100454.27
2019-06-26T00:11:42.591Z,100453.93
2019-06-26T00:12:19.871Z,100460.67
2019-06-26T00:12:56.245Z,100465.08
2019-06-26T00:13:32.867Z,100459.57
2019-06-26T00:14:09.584Z,100464.51
2019-06-26T00:14:46.047Z,100460.06
2019-06-26T00:15:22.978Z,100463.81
2019-06-26T00:16:00.029Z,100461.66
2019-06-26T00:16:36.667Z,100461.80
2019-06-26T00:17:14.046Z,100461.80
2019-06-26T00:17:50.697Z,100457.94
2019-06-26T00:18:26.737Z,100458.22
2019-06-26T00:19:03.367Z,100456.20
2019-06-26T00:19:40.931Z,100461.99
2019-06-26T00:20:17.655Z,100458.69
2019-06-26T00:20:54.681Z,100465.83
2019-06-26T00:21:31.701Z,100463.32
2019-06-26T00:22:07.998Z,100461.97
2019-06-26T00:22:44.977Z,100460.39
2019-06-26T00:23:21.598Z,100462.72
2019-06-26T00:23:58.457Z,100464.36
2019-06-26T00:24:35.078Z,100463.32
2019-06-26T00:25:11.884Z,100464.27
2019-06-26T00:25:48.023Z,100463.41
2019-06-26T00:26:25.695Z,100466.69
2019-06-26T00:27:03.066Z,100455.77
2019-06-26T00:27:39.726Z,100465.25
2019-06-26T00:28:17.080Z,100464.06
2019-06-26T00:28:53.797Z,100467.52
2019-06-26T00:29:29.905Z,100464.73
2019-06-26T00:30:08.065Z,100461.65
2019-06-26T00:30:44.870Z,100461.45
2019-06-26T00:31:20.927Z,100461.71
2019-06-26T00:31:57.542Z,100464.70
2019-06-26T00:32:34.789Z,100462.83
2019-06-26T00:33:10.828Z,100466.67
2019-06-26T00:33:47.471Z,100466.95
2019-06-26T00:34:24.842Z,100466.92
2019-06-26T00:35:00.959Z,100467.55
2019-06-26T00:35:37.691Z,100466.44
2019-06-26T00:36:14.792Z,100470.55
2019-06-26T00:36:50.860Z,100464.50
2019-06-26T00:37:27.877Z,100467.22
2019-06-26T00:38:04.564Z,100469.60
2019-06-26T00:38:40.601Z,100467.41
2019-06-26T00:39:17.564Z,100468.05
2019-06-26T00:39:54.738Z,100471.53
2019-06-26T00:40:31.275Z,100469.51
2019-06-26T00:41:07.944Z,100465.45
2019-06-26T00:41:45.033Z,100470.06
2019-06-26T00:42:21.358Z,100464.20
2019-06-26T00:42:58.379Z,100467.03
2019-06-26T00:43:42.404Z,100465.39
2019-06-26T00:44:13.881Z,100464.91
2019-06-26T00:44:50.768Z,100469.69
2019-06-26T00:45:27.392Z,100465.70
2019-06-26T00:46:03.755Z,100470.17
2019-06-26T00:46:40.870Z,100474.14
2019-06-26T00:47:17.468Z,100471.50
2019-06-26T00:47:53.506Z,100471.64
2019-06-26T00:48:30.119Z,100470.80
2019-06-26T00:49:06.789Z,100473.94
2019-06-26T00:49:42.813Z,100467.31
2019-06-26T00:50:19.773Z,100475.75
2019-06-26T00:50:56.495Z,100472.27
2019-06-26T00:51:32.655Z,100477.08
2019-06-26T00:52:09.414Z,100475.81
2019-06-26T00:52:46.032Z,100465.25
2019-06-26T00:53:22.478Z,100468.19
2019-06-26T00:53:59.441Z,100470.52
2019-06-26T00:54:36.066Z,100467.52
2019-06-26T00:55:12.651Z,100468.84
2019-06-26T00:55:49.268Z,100466.20
2019-06-26T00:56:26.780Z,100467.52
2019-06-26T00:57:03.054Z,100465.70
2019-06-26T00:57:39.674Z,100465.98
2019-06-26T00:58:16.901Z,100466.37
2019-06-26T00:58:53.192Z,100461.41
2019-06-26T00:59:30.406Z,100464.91
2019-06-26T01:00:10.262Z,100461.88
2019-06-26T01:00:50.388Z,100459.51
2019-06-26T01:01:27.023Z,100466.97
2019-06-26T01:02:04.272Z,100462.30
2019-06-26T01:02:40.305Z,100463.48
2019-06-26T01:03:17.217Z,100463.48
2019-06-26T01:03:55.408Z,100463.94
2019-06-26T01:04:35.594Z,100467.08
2019-06-26T01:05:12.899Z,100465.20
2019-06-26T01:05:49.939Z,100464.56
2019-06-26T01:06:44.884Z,100470.08
2019-06-26T01:07:21.888Z,100467.17
2019-06-26T01:07:58.474Z,100470.56
2019-06-26T01:08:35.240Z,100473.08
2019-06-26T01:09:11.895Z,100467.36
2019-06-26T01:09:48.936Z,100471.47
2019-06-26T01:10:25.118Z,100467.95
2019-06-26T01:11:02.078Z,100472.56
2019-06-26T01:11:39.009Z,100479.84
2019-06-26T01:12:15.395Z,100470.01
2019-06-26T01:12:52.128Z,100471.64
2019-06-26T01:13:29.211Z,100473.11
2019-06-26T01:14:05.792Z,100470.08
2019-06-26T01:14:42.411Z,100474.34
2019-06-26T01:15:19.243Z,100472.17
2019-06-26T01:15:55.272Z,100478.52
2019-06-26T01:16:32.484Z,100469.66
2019-06-26T01:17:09.293Z,100461.09
2019-06-26T01:17:45.357Z,100476.00
2019-06-26T01:18:22.840Z,100476.11
2019-06-26T01:18:59.801Z,100474.05
2019-06-26T01:19:37.117Z,100477.86
2019-06-26T01:20:14.043Z,100469.73
2019-06-26T01:20:50.707Z,100475.87
2019-06-26T01:21:27.486Z,100470.02
2019-06-26T01:22:04.556Z,100475.10
2019-06-26T01:22:41.525Z,100472.45
2019-06-26T01:23:17.682Z,100473.11
2019-06-26T01:23:54.297Z,100472.20
2019-06-26T01:24:31.392Z,100481.48
2019-06-26T01:25:07.485Z,100472.66
2019-06-26T01:25:44.288Z,100474.37
2019-06-26T01:26:21.304Z,100476.98
2019-06-26T01:26:57.367Z,100476.59
2019-06-26T01:27:34.025Z,100478.23
2019-06-26T01:28:11.069Z,100476.39
2019-06-26T01:28:47.612Z,100474.13
2019-06-26T01:29:24.323Z,100473.32
2019-06-26T01:30:01.363Z,100473.73
2019-06-26T01:30:37.878Z,100474.05
2019-06-26T01:31:14.855Z,100476.14
2019-06-26T01:31:51.511Z,100475.90
2019-06-26T01:32:28.306Z,100473.53
2019-06-26T01:33:05.014Z,100475.78
2019-06-26T01:33:41.980Z,100477.73
2019-06-26T01:34:18.382Z,100475.92
2019-06-26T01:34:55.696Z,100478.05
2019-06-26T01:35:33.059Z,100468.22
2019-06-26T01:36:09.153Z,100475.19
2019-06-26T01:36:45.812Z,100474.00
2019-06-26T01:37:23.474Z,100472.33
2019-06-26T01:37:59.979Z,100469.36
2019-06-26T01:38:36.704Z,100465.22
2019-06-26T01:39:13.377Z,100469.84
2019-06-26T01:39:49.421Z,100478.77
2019-06-26T01:40:26.059Z,100475.62
2019-06-26T01:41:03.608Z,100470.61
2019-06-26T01:41:40.407Z,100472.98
2019-06-26T01:42:17.035Z,100472.98
2019-06-26T01:42:53.722Z,100466.71
2019-06-26T01:43:30.902Z,100467.69
2019-06-26T01:44:14.605Z,100468.17
2019-06-26T01:44:46.577Z,100472.01
2019-06-26T01:45:23.111Z,100466.89
2019-06-26T01:45:59.746Z,100464.59
2019-06-26T01:46:36.401Z,100469.12
2019-06-26T01:47:12.486Z,100470.84
2019-06-26T01:47:49.116Z,100468.81
2019-06-26T01:48:26.260Z,100466.17
2019-06-26T01:49:02.668Z,100469.47
2019-06-26T01:49:39.590Z,100466.17
2019-06-26T01:50:16.238Z,100470.10
2019-06-26T01:50:52.287Z,100468.03
2019-06-26T01:51:29.070Z,100466.50
2019-06-26T01:52:05.929Z,100471.09
2019-06-26T01:52:41.982Z,100469.08
2019-06-26T01:53:19.040Z,100468.15
2019-06-26T01:53:56.442Z,100471.47
2019-06-26T01:54:32.520Z,100467.63
2019-06-26T01:55:09.758Z,100469.26
2019-06-26T01:55:46.387Z,100469.75
2019-06-26T01:56:22.763Z,100468.81
2019-06-26T01:56:59.419Z,100466.24
2019-06-26T01:57:36.459Z,100469.38
2019-06-26T01:58:12.788Z,100465.82
2019-06-26T01:58:49.448Z,100469.80
2019-06-26T01:59:26.436Z,100474.41
2019-06-26T02:00:02.594Z,100473.05
2019-06-26T02:00:39.410Z,100468.63
2019-06-26T02:01:16.068Z,100472.25
2019-06-26T02:01:52.167Z,100467.23
2019-06-26T02:02:28.822Z,100468.70
2019-06-26T02:03:05.501Z,100470.99
2019-06-26T02:03:41.604Z,100470.33
2019-06-26T02:04:18.556Z,100472.44
2019-06-26T02:04:55.263Z,100466.12
2019-06-26T02:05:31.390Z,100471.07
2019-06-26T02:06:08.059Z,100471.16
2019-06-26T02:06:45.543Z,100469.41
2019-06-26T02:07:21.584Z,100472.36
2019-06-26T02:07:58.321Z,100470.47
2019-06-26T02:08:34.953Z,100474.30
2019-06-26T02:09:11.357Z,100469.01
2019-06-26T02:09:47.976Z,100471.44
2019-06-26T02:10:24.880Z,100470.60
2019-06-26T02:11:00.946Z,100467.47
2019-06-26T02:11:38.303Z,100469.94
2019-06-26T02:12:15.272Z,100473.06
2019-06-26T02:12:51.309Z,100471.01
2019-06-26T02:13:27.937Z,100469.45
2019-06-26T02:14:05.074Z,100471.01
2019-06-26T02:14:41.958Z,100468.14
2019-06-26T02:15:18.869Z,100471.98
2019-06-26T02:15:55.492Z,100471.77
2019-06-26T02:16:31.512Z,100470.66
2019-06-26T02:17:08.282Z,100475.11
2019-06-26T02:17:45.643Z,100471.63
2019-06-26T02:18:47.524Z,100470.66
2019-06-26T02:19:24.565Z,100473.44
2019-06-26T02:20:02.000Z,100467.52
2019-06-26T02:20:38.044Z,100474.39
2019-06-26T02:21:15.422Z,100470.55
2019-06-26T02:21:52.009Z,100474.03
2019-06-26T02:22:28.436Z,100472.58
2019-06-26T02:23:05.511Z,100467.29
2019-06-26T02:23:42.436Z,100473.25
2019-06-26T02:24:18.497Z,100478.55
2019-06-26T02:24:55.100Z,100475.41
2019-06-26T02:25:32.134Z,100477.70
2019-06-26T02:26:08.167Z,100479.33
2019-06-26T02:26:45.174Z,100480.17
2019-06-26T02:27:22.110Z,100476.55
2019-06-26T02:27:58.133Z,100479.33
2019-06-26T02:28:34.766Z,100482.86
2019-06-26T02:29:11.701Z,100482.16
2019-06-26T02:29:47.792Z,100484.48
2019-06-26T02:30:24.402Z,100483.78
2019-06-26T02:31:01.023Z,100484.86
2019-06-26T02:31:37.350Z,100479.38
2019-06-26T02:32:13.983Z,100481.86
2019-06-26T02:32:50.607Z,100482.34
2019-06-26T02:33:26.738Z,100482.03
2019-06-26T02:34:03.862Z,100476.52
2019-06-26T02:34:40.573Z,100482.03
2019-06-26T02:35:17.003Z,100484.37
2019-06-26T02:35:53.618Z,100481.59
2019-06-26T02:36:30.860Z,100483.53
2019-06-26T02:37:07.261Z,100484.37
2019-06-26T02:37:43.907Z,100486.31
2019-06-26T02:38:20.526Z,100492.09
2019-06-26T02:38:56.562Z,100488.20
2019-06-26T02:39:33.182Z,100488.37
2019-06-26T02:40:11.076Z,100491.69
2019-06-26T02:40:47.126Z,100486.69
2019-06-26T02:41:24.049Z,100491.14
2019-06-26T02:42:00.726Z,100486.27
2019-06-26T02:42:36.902Z,100489.20
2019-06-26T02:43:14.322Z,100490.05
2019-06-26T02:43:51.149Z,100486.08
2019-06-26T02:44:27.213Z,100481.18
2019-06-26T02:45:04.410Z,100485.64
2019-06-26T02:45:41.490Z,100480.20
2019-06-26T02:46:17.637Z,100493.80
2019-06-26T02:46:54.651Z,100488.07
2019-06-26T02:47:31.305Z,100490.05
2019-06-26T02:48:07.383Z,100487.58
2019-06-26T02:48:44.403Z,100481.97
2019-06-26T02:49:21.064Z,100482.24
2019-06-26T02:49:57.231Z,100483.91
2019-06-26T02:50:33.997Z,100482.16
2019-06-26T02:51:10.662Z,100482.78
2019-06-26T02:51:47.216Z,100490.36
2019-06-26T02:52:23.911Z,100486.83
2019-06-26T02:53:00.544Z,100489.26
2019-06-26T02:53:36.637Z,100485.42
2019-06-26T02:54:13.279Z,100489.74
2019-06-26T02:54:50.597Z,100487.58
2019-06-26T02:55:27.090Z,100491.72
2019-06-26T02:56:03.825Z,100488.16
2019-06-26T02:56:40.783Z,100488.99
2019-06-26T02:57:17.138Z,100495.96
2019-06-26T02:57:53.807Z,100492.34
2019-06-26T02:58:30.454Z,100489.47
2019-06-26T02:59:07.018Z,100489.69
2019-06-26T02:59:43.689Z,100494.41
2019-06-26T03:00:20.790Z,100490.39
2019-06-26T03:00:57.225Z,100486.42
2019-06-26T03:01:34.186Z,100483.43
2019-06-26T03:02:10.888Z,100487.41
2019-06-26T03:02:46.961Z,100483.00
2019-06-26T03:03:23.603Z,100491.94
2019-06-26T03:04:00.651Z,100485.64
2019-06-26T03:04:37.021Z,100486.43
2019-06-26T03:05:13.653Z,100491.77
2019-06-26T03:05:50.310Z,100486.34
2019-06-26T03:06:26.612Z,100485.16
2019-06-26T03:07:03.681Z,100487.27
2019-06-26T03:07:40.361Z,100480.05
2019-06-26T03:08:16.488Z,100482.03
2019-06-26T03:08:53.138Z,100489.61
2019-06-26T03:09:29.798Z,100487.10
2019-06-26T03:10:07.011Z,100492.18
2019-06-26T03:10:43.659Z,100488.34
2019-06-26T03:11:20.761Z,100495.92
2019-06-26T03:11:56.811Z,100490.31
2019-06-26T03:12:33.820Z,100494.47
2019-06-26T03:13:10.904Z,100492.05
2019-06-26T03:13:47.220Z,100495.88
2019-06-26T03:14:23.942Z,100492.53
2019-06-26T03:15:08.986Z,100493.85
2019-06-26T03:15:38.960Z,100493.59
2019-06-26T03:16:15.619Z,100490.10
2019-06-26T03:16:53.071Z,100499.77
2019-06-26T03:17:29.152Z,100495.80
2019-06-26T03:18:06.036Z,100492.31
2019-06-26T03:18:42.687Z,100492.61
2019-06-26T03:19:19.041Z,100498.66
2019-06-26T03:19:55.700Z,100496.63
2019-06-26T03:20:35.447Z,100495.44
2019-06-26T03:21:12.505Z,100501.03
2019-06-26T03:21:49.522Z,100491.20
2019-06-26T03:22:26.864Z,100492.34
2019-06-26T03:23:02.929Z,100497.28
2019-06-26T03:23:39.591Z,100493.98
2019-06-26T03:24:16.235Z,100497.77
2019-06-26T03:24:52.335Z,100492.66
2019-06-26T03:25:29.073Z,100499.49
2019-06-26T03:26:06.223Z,100501.66
2019-06-26T03:26:42.321Z,100499.09
2019-06-26T03:27:19.351Z,100502.75
2019-06-26T03:27:56.247Z,100511.27
2019-06-26T03:28:33.435Z,100508.40
2019-06-26T03:29:10.102Z,100507.52
2019-06-26T03:29:46.873Z,100513.48
2019-06-26T03:30:23.417Z,100514.19
2019-06-26T03:31:00.462Z,100512.02
2019-06-26T03:31:37.133Z,100516.20
2019-06-26T03:32:13.320Z,100510.86
2019-06-26T03:32:49.955Z,100516.41
2019-06-26T03:33:26.594Z,100513.71
2019-06-26T03:34:02.679Z,100514.11
2019-06-26T03:34:39.324Z,100513.05
2019-06-26T03:35:16.296Z,100514.23
2019-06-26T03:35:52.436Z,100513.56
2019-06-26T03:36:29.083Z,100515.69
2019-06-26T03:37:05.801Z,100520.66
2019-06-26T03:37:42.415Z,100519.83
2019-06-26T03:38:19.144Z,100514.53
2019-06-26T03:38:55.895Z,100515.02
2019-06-26T03:39:32.617Z,100519.95
2019-06-26T03:40:10.016Z,100524.89
2019-06-26T03:40:46.938Z,100518.44
2019-06-26T03:41:23.716Z,100524.49
2019-06-26T03:42:00.771Z,100529.70
2019-06-26T03:42:37.747Z,100523.45
2019-06-26T03:43:13.948Z,100526.86
2019-06-26T03:43:50.590Z,100524.14
2019-06-26T03:44:27.235Z,100526.17
2019-06-26T03:45:03.352Z,100523.66
2019-06-26T03:45:40.352Z,100527.89
2019-06-26T03:46:16.983Z,100528.53
2019-06-26T03:46:53.148Z,100528.09
2019-06-26T03:47:30.124Z,100529.98
2019-06-26T03:48:06.788Z,100527.91
2019-06-26T03:48:43.197Z,100527.95
2019-06-26T03:49:20.237Z,100527.18
2019-06-26T03:49:56.909Z,100524.66
2019-06-26T03:50:32.998Z,100534.57
2019-06-26T03:51:13.747Z,100535.89
2019-06-26T03:51:48.938Z,100533.64
2019-06-26T03:52:25.043Z,100533.53
2019-06-26T03:53:02.376Z,100529.89
2019-06-26T03:53:39.164Z,100534.98
2019-06-26T03:54:15.220Z,100527.63
2019-06-26T03:54:52.071Z,100530.68
2019-06-26T03:55:28.709Z,100529.20
2019-06-26T03:56:05.352Z,100530.38
2019-06-26T03:56:42.317Z,100531.77
2019-06-26T03:57:19.697Z,100529.39
2019-06-26T03:57:56.291Z,100534.67
2019-06-26T03:58:33.577Z,100535.70
2019-06-26T03:59:10.250Z,100533.42
2019-06-26T03:59:46.306Z,100534.52
2019-06-26T04:00:31.798Z,100537.52
2019-06-26T04:01:08.862Z,100530.33
2019-06-26T04:01:44.923Z,100539.67
2019-06-26T04:02:22.318Z,100535.09
2019-06-26T04:02:59.433Z,100537.64
2019-06-26T04:03:35.507Z,100538.22
2019-06-26T04:04:12.205Z,100536.32
2019-06-26T04:04:49.793Z,100536.61
2019-06-26T04:05:25.885Z,100538.90
2019-06-26T04:06:02.913Z,100530.68
2019-06-26T04:06:39.573Z,100538.13
2019-06-26T04:07:15.621Z,100535.00
2019-06-26T04:07:53.109Z,100542.09
2019-06-26T04:08:29.811Z,100536.80
2019-06-26T04:09:07.284Z,100531.61
2019-06-26T04:09:44.643Z,100533.33
2019-06-26T04:10:21.260Z,100542.09
2019-06-26T04:10:57.341Z,100537.73
2019-06-26T04:11:33.979Z,100541.22
2019-06-26T04:12:10.644Z,100536.67
2019-06-26T04:12:47.097Z,100533.45
2019-06-26T04:13:23.737Z,100532.48
2019-06-26T04:14:00.678Z,100537.03
2019-06-26T04:14:37.083Z,100543.38
2019-06-26T04:15:14.201Z,100542.37
2019-06-26T04:15:51.175Z,100541.77
2019-06-26T04:16:27.750Z,100543.31
2019-06-26T04:17:04.419Z,100546.16
2019-06-26T04:17:41.058Z,100542.54
2019-06-26T04:18:17.425Z,100545.05
2019-06-26T04:18:54.065Z,100543.60
2019-06-26T04:19:30.743Z,100544.31
2019-06-26T04:20:07.021Z,100546.30
2019-06-26T04:20:43.632Z,100548.11
2019-06-26T04:21:20.272Z,100549.11
2019-06-26T04:21:56.323Z,100546.95
2019-06-26T04:22:33.216Z,100547.70
2019-06-26T04:23:09.816Z,100548.89
2019-06-26T04:23:46.640Z,100550.44
2019-06-26T04:24:23.274Z,100547.50
2019-06-26T04:25:00.282Z,100550.76
2019-06-26T04:25:38.275Z,100551.56
2019-06-26T04:26:14.813Z,100551.08
2019-06-26T04:26:51.792Z,100553.55
2019-06-26T04:27:28.100Z,100556.91
2019-06-26T04:28:06.427Z,100552.94
2019-06-26T04:28:44.058Z,100548.91
2019-06-26T04:29:20.390Z,100558.62
2019-06-26T04:29:57.151Z,100556.72
2019-06-26T04:30:33.778Z,100557.08
2019-06-26T04:31:09.877Z,100555.41
2019-06-26T04:31:46.499Z,100552.63
2019-06-26T04:32:23.500Z,100558.40
2019-06-26T04:32:59.928Z,100547.41
2019-06-26T04:33:36.844Z,100555.53
2019-06-26T04:34:13.477Z,100554.20
2019-06-26T04:34:49.531Z,100550.88
2019-06-26T04:35:26.617Z,100555.27
2019-06-26T04:36:03.289Z,100555.88
2019-06-26T04:36:39.328Z,100558.40
2019-06-26T04:37:15.935Z,100553.67
2019-06-26T04:37:52.673Z,100559.37
2019-06-26T04:38:29.031Z,100562.07
2019-06-26T04:39:07.397Z,100555.56
2019-06-26T04:39:44.006Z,100550.65
2019-06-26T04:40:20.779Z,100560.89
2019-06-26T04:40:58.006Z,100560.13
2019-06-26T04:41:34.664Z,100560.97
2019-06-26T04:42:10.726Z,100561.81
2019-06-26T04:42:47.790Z,100560.84
2019-06-26T04:43:24.433Z,100559.78
2019-06-26T04:44:00.552Z,100563.13
2019-06-26T04:44:37.466Z,100563.22
2019-06-26T04:45:15.504Z,100560.89
2019-06-26T04:45:58.097Z,100553.66
2019-06-26T04:46:29.907Z,100557.53
2019-06-26T04:47:06.882Z,100564.26
2019-06-26T04:47:42.962Z,100563.38
2019-06-26T04:48:20.010Z,100560.67
2019-06-26T04:48:56.645Z,100564.42
2019-06-26T04:49:33.031Z,100562.62
2019-06-26T04:50:11.290Z,100567.75
2019-06-26T04:50:48.604Z,100560.86
2019-06-26T04:51:24.644Z,100566.42
2019-06-26T04:52:01.293Z,100562.27
2019-06-26T04:52:38.406Z,100563.98
2019-06-26T04:53:14.460Z,100561.56
2019-06-26T04:53:51.105Z,100563.02
2019-06-26T04:54:27.824Z,100557.10
2019-06-26T04:55:04.053Z,100563.77
2019-06-26T04:55:41.025Z,100561.42
2019-06-26T04:56:17.666Z,100566.98
2019-06-26T04:56:53.898Z,100559.40
2019-06-26T04:57:30.576Z,100567.69
2019-06-26T04:58:07.288Z,100564.52
2019-06-26T04:58:43.316Z,100560.15
2019-06-26T04:59:19.972Z,100566.77
2019-06-26T04:59:56.597Z,100566.98
2019-06-26T05:00:32.643Z,100571.44
2019-06-26T05:01:10.070Z,100564.11
2019-06-26T05:01:46.828Z,100570.52
2019-06-26T05:02:22.963Z,100561.48
2019-06-26T05:02:59.913Z,100562.75
2019-06-26T05:03:36.577Z,100570.56
2019-06-26T05:04:12.647Z,100573.26
2019-06-26T05:04:49.285Z,100575.64
2019-06-26T05:05:38.908Z,100581.47
2019-06-26T05:06:03.814Z,100570.95
2019-06-26T05:06:40.538Z,100574.28
2019-06-26T05:07:17.464Z,100575.11
2019-06-26T05:07:53.850Z,100572.47
2019-06-26T05:08:30.920Z,100573.30
2019-06-26T05:09:08.763Z,100581.19
2019-06-26T05:09:45.094Z,100579.47
2019-06-26T05:10:22.202Z,100578.02
2019-06-26T05:10:58.838Z,100579.11
2019-06-26T05:11:35.025Z,100578.98
2019-06-26T05:12:11.647Z,100582.87
2019-06-26T05:12:48.595Z,100583.18
2019-06-26T05:13:25.015Z,100581.55
2019-06-26T05:14:01.671Z,100578.98
2019-06-26T05:14:38.846Z,100583.23
2019-06-26T05:15:15.194Z,100579.57
2019-06-26T05:15:52.229Z,100580.41
2019-06-26T05:16:29.159Z,100585.83
2019-06-26T05:17:05.502Z,100579.73
2019-06-26T05:17:42.157Z,100584.45
2019-06-26T05:18:18.806Z,100588.12
2019-06-26T05:18:55.281Z,100588.28
2019-06-26T05:19:32.288Z,100585.11
2019-06-26T05:20:10.746Z,100585.14
2019-06-26T05:20:47.248Z,100584.38
2019-06-26T05:21:24.699Z,100584.08
2019-06-26T05:22:01.377Z,100584.42
2019-06-26T05:22:37.424Z,100585.22
2019-06-26T05:23:14.082Z,100583.83
2019-06-26T05:23:51.092Z,100589.40
2019-06-26T05:24:28.028Z,100587.03
2019-06-26T05:25:04.983Z,100590.84
2019-06-26T05:25:42.089Z,100585.96
2019-06-26T05:26:18.188Z,100589.63
2019-06-26T05:26:54.804Z,100591.95
2019-06-26T05:27:31.453Z,100586.48
2019-06-26T05:28:08.563Z,100585.72
2019-06-26T05:28:45.404Z,100587.57
2019-06-26T05:29:22.164Z,100590.26
2019-06-26T05:29:58.658Z,100586.52
2019-06-26T05:30:36.081Z,100588.97
2019-06-26T05:31:12.827Z,100590.98
2019-06-26T05:31:49.192Z,100585.61
2019-06-26T05:32:25.892Z,100589.45
2019-06-26T05:33:03.048Z,100586.23
2019-06-26T05:33:39.556Z,100588.47
2019-06-26T05:34:16.285Z,100588.34
2019-06-26T05:34:53.361Z,100589.07
2019-06-26T05:35:29.843Z,100586.45
2019-06-26T05:36:06.804Z,100589.17
2019-06-26T05:36:43.421Z,100591.27
2019-06-26T05:37:19.515Z,100599.36
2019-06-26T05:37:56.533Z,100594.76
2019-06-26T05:38:33.221Z,100597.20
2019-06-26T05:39:09.299Z,100591.97
2019-06-26T05:39:45.928Z,100596.92
2019-06-26T05:40:22.685Z,100591.97
2019-06-26T05:40:58.778Z,100590.16
2019-06-26T05:41:35.430Z,100593.33
2019-06-26T05:42:12.271Z,100591.97
2019-06-26T05:42:48.775Z,100599.19
2019-06-26T05:43:25.446Z,100605.36
2019-06-26T05:44:02.548Z,100595.11
2019-06-26T05:44:38.964Z,100603.20
2019-06-26T05:45:16.186Z,100599.50
2019-06-26T05:45:52.913Z,100595.14
2019-06-26T05:46:31.382Z,100605.02
2019-06-26T05:47:08.436Z,100601.72
2019-06-26T05:47:45.406Z,100602.14
2019-06-26T05:48:21.756Z,100600.08
2019-06-26T05:48:58.370Z,100597.93
2019-06-26T05:49:35.059Z,100600.89
2019-06-26T05:50:11.871Z,100599.91
2019-06-26T05:50:48.684Z,100604.14
2019-06-26T05:51:25.315Z,100604.88
2019-06-26T05:52:02.286Z,100600.09
2019-06-26T05:52:42.218Z,100597.27
2019-06-26T05:53:17.738Z,100603.16
2019-06-26T05:53:53.905Z,100597.54
2019-06-26T05:54:30.510Z,100601.03
2019-06-26T05:55:07.770Z,100599.34
2019-06-26T05:55:43.848Z,100605.63
2019-06-26T05:56:20.513Z,100601.91
2019-06-26T05:56:57.141Z,100600.90
2019-06-26T05:57:33.596Z,100597.72
2019-06-26T05:58:10.607Z,100599.36
2019-06-26T05:58:47.334Z,100602.16
2019-06-26T05:59:23.348Z,100606.89
2019-06-26T06:00:00.370Z,100604.02
2019-06-26T06:00:37.310Z,100601.77
2019-06-26T06:01:13.310Z,100602.95
2019-06-26T06:01:49.976Z,100607.16
2019-06-26T06:02:26.639Z,100607.80
2019-06-26T06:03:03.000Z,100611.13
2019-06-26T06:03:39.604Z,100617.38
2019-06-26T06:04:16.802Z,100610.16
2019-06-26T06:04:53.226Z,100614.42
2019-06-26T06:05:30.233Z,100613.59
2019-06-26T06:06:07.041Z,100615.69
2019-06-26T06:06:43.072Z,100612.27
2019-06-26T06:07:20.482Z,100612.63
2019-06-26T06:07:57.823Z,100613.95
2019-06-26T06:08:33.905Z,100610.80
2019-06-26T06:09:10.525Z,100611.58
2019-06-26T06:09:47.393Z,100612.72
2019-06-26T06:10:23.676Z,100613.03
2019-06-26T06:11:00.855Z,100615.86
2019-06-26T06:11:37.915Z,100620.30
2019-06-26T06:12:14.189Z,100614.11
2019-06-26T06:12:50.859Z,100617.05
2019-06-26T06:13:27.496Z,100615.58
2019-06-26T06:14:03.811Z,100612.30
2019-06-26T06:14:40.462Z,100617.64
2019-06-26T06:15:17.685Z,100618.85
2019-06-26T06:15:54.271Z,100619.92
2019-06-26T06:16:45.941Z,100614.54
2019-06-26T06:17:09.377Z,100622.64
2019-06-26T06:17:45.429Z,100619.16
2019-06-26T06:18:22.049Z,100617.36
2019-06-26T06:18:58.678Z,100614.22
2019-06-26T06:19:34.749Z,100620.02
2019-06-26T06:20:12.477Z,100616.70
2019-06-26T06:20:49.374Z,100618.34
2019-06-26T06:21:25.426Z,100620.39
2019-06-26T06:22:02.087Z,100612.20
2019-06-26T06:22:38.752Z,100616.83
2019-06-26T06:23:14.860Z,100620.02
2019-06-26T06:23:51.561Z,100619.90
2019-06-26T06:24:28.192Z,100623.81
2019-06-26T06:25:04.452Z,100621.70
2019-06-26T06:25:41.436Z,100624.87
2019-06-26T06:26:18.086Z,100625.12
2019-06-26T06:26:54.195Z,100630.84
2019-06-26T06:27:30.856Z,100623.11
2019-06-26T06:28:07.514Z,100625.70
2019-06-26T06:28:43.508Z,100629.69
2019-06-26T06:29:20.107Z,100628.73
2019-06-26T06:29:56.744Z,100624.72
2019-06-26T06:30:32.771Z,100627.11
2019-06-26T06:31:09.418Z,100629.73
2019-06-26T06:31:46.000Z,100630.52
2019-06-26T06:32:22.669Z,100628.66
2019-06-26T06:32:59.356Z,100630.95
2019-06-26T06:33:35.981Z,100630.55
2019-06-26T06:34:12.776Z,100628.39
2019-06-26T06:34:49.389Z,100629.42
2019-06-26T06:35:26.090Z,100632.86
2019-06-26T06:36:02.483Z,100629.79
2019-06-26T06:36:39.513Z,100628.95
2019-06-26T06:37:16.253Z,100625.88
2019-06-26T06:37:53.232Z,100618.67
2019-06-26T06:38:29.826Z,100627.41
2019-06-26T06:39:08.005Z,100628.30
2019-06-26T06:39:44.058Z,100630.20
2019-06-26T06:40:20.632Z,100625.31
2019-06-26T06:40:57.226Z,100622.85
2019-06-26T06:41:33.235Z,100626.08
2019-06-26T06:42:09.831Z,100627.33
2019-06-26T06:42:46.455Z,100624.77
2019-06-26T06:43:22.468Z,100629.50
2019-06-26T06:43:59.649Z,100626.29
2019-06-26T06:44:36.309Z,100622.86
2019-06-26T06:45:12.613Z,100627.48
2019-06-26T06:45:50.090Z,100632.53
2019-06-26T06:46:27.058Z,100629.64
2019-06-26T06:47:04.545Z,100635.03
2019-06-26T06:47:42.037Z,100629.15
2019-06-26T06:48:18.650Z,100632.14
2019-06-26T06:48:54.650Z,100629.50
2019-06-26T06:49:31.243Z,100633.08
2019-06-26T06:50:08.039Z,100632.65
2019-06-26T06:50:44.052Z,100635.70
2019-06-26T06:51:20.795Z,100632.72
2019-06-26T06:51:57.416Z,100635.22
2019-06-26T06:52:33.901Z,100638.92
2019-06-26T06:53:11.472Z,100637.88
2019-06-26T06:53:48.448Z,100637.38
2019-06-26T06:54:25.529Z,100638.53
2019-06-26T06:55:02.174Z,100641.67
2019-06-26T06:55:38.852Z,100641.63
2019-06-26T06:56:15.508Z,100644.08
2019-06-26T06:56:52.299Z,100639.41
2019-06-26T06:57:29.337Z,100643.44
2019-06-26T06:58:05.483Z,100642.07
2019-06-26T06:58:42.655Z,100638.58
2019-06-26T06:59:19.656Z,100643.44
2019-06-26T06:59:55.706Z,100646.75